createdAt,value
2023-04-27T07:16:33.286Z,2.33
2023-04-27T07:21:35.447Z,3.50
2023-04-27T07:26:37.699Z,3.42
2023-04-27T07:31:39.828Z,3.63
2023-04-27T07:36:41.832Z,3.40
2023-04-27T07:41:43.911Z,2.58
2023-04-27T07:46:49.019Z,2.45
2023-04-27T07:51:51.264Z,2.33
2023-04-27T07:56:54.099Z,2.75
2023-04-27T08:02:07.131Z,2.75
2023-04-27T08:07:19.513Z,3.20
2023-04-27T08:12:21.876Z,2.70
2023-04-27T08:17:24.052Z,4.75
2023-04-27T08:22:26.088Z,2.60
2023-04-27T08:27:28.279Z,2.60
2023-04-27T08:32:30.344Z,3.22
2023-04-27T08:37:33.439Z,2.50
2023-04-27T08:42:36.618Z,2.65
2023-04-27T08:47:43.563Z,2.80
2023-04-27T08:52:49.536Z,3.28
2023-04-27T08:57:58.692Z,3.78
2023-04-27T09:03:04.267Z,3.63
2023-04-27T09:08:08.182Z,2.90
2023-04-27T09:13:10.209Z,4.28
2023-04-27T09:18:21.335Z,3.25
2023-04-27T09:23:31.821Z,2.88
2023-04-27T09:28:35.229Z,2.92
2023-04-27T09:33:37.270Z,3.53
2023-04-27T09:38:39.604Z,3.28
2023-04-27T09:43:45.736Z,3.28
2023-04-27T09:48:49.791Z,2.78
2023-04-27T09:53:59.322Z,4.05
2023-04-27T09:59:24.385Z,5.78
2023-04-27T10:04:57.726Z,5.05
2023-04-27T10:10:04.959Z,3.85
2023-04-27T10:15:14.809Z,3.15
2023-04-27T10:20:17.965Z,3.30
2023-04-27T10:25:26.434Z,3.15
2023-04-27T10:30:34.798Z,2.78
2023-04-27T10:35:37.646Z,2.88
2023-04-27T10:40:39.955Z,2.95
2023-04-27T10:45:45.505Z,2.22
2023-04-27T10:50:47.910Z,2.50
2023-04-27T10:55:56.944Z,3.08
2023-04-27T11:00:58.950Z,3.00
2023-04-27T11:06:05.365Z,2.25
2023-04-27T11:11:09.788Z,2.30
2023-04-27T11:16:11.807Z,2.65
2023-04-27T11:21:20.576Z,3.10
2023-04-27T11:26:26.580Z,4.07
2023-04-27T11:31:43.625Z,3.03
2023-04-27T11:37:03.768Z,2.50
2023-04-27T11:42:24.925Z,2.53
2023-04-27T11:47:29.333Z,2.65
2023-04-27T11:52:36.280Z,2.25
2023-04-27T11:57:39.056Z,1.80
2023-04-27T12:02:42.988Z,1.63
2023-04-27T12:07:45.582Z,1.92
2023-04-27T12:12:47.554Z,2.30
2023-04-27T12:17:49.573Z,2.38
2023-04-27T12:22:51.890Z,2.38
2023-04-27T12:27:54.055Z,2.65
2023-04-27T12:32:56.287Z,2.72
2023-04-27T12:37:58.719Z,2.78
2023-04-27T12:43:01.572Z,3.05
2023-04-27T12:48:04.412Z,2.70
2023-04-27T12:53:06.616Z,2.63
2023-04-27T12:58:08.600Z,2.50
2023-04-27T13:03:10.924Z,3.55
2023-04-27T13:08:13.002Z,3.28
2023-04-27T13:13:15.004Z,2.45
2023-04-27T13:18:16.985Z,2.70
2023-04-27T13:23:19.154Z,2.47
2023-04-27T13:28:21.117Z,2.30
2023-04-27T13:33:23.830Z,2.30
2023-04-27T13:38:26.212Z,3.00
2023-04-27T13:43:28.235Z,2.20
2023-04-27T13:48:30.995Z,2.65
2023-04-27T13:53:33.071Z,2.30
2023-04-27T13:58:35.117Z,2.97
2023-04-27T14:03:37.254Z,4.13
2023-04-27T14:08:39.320Z,2.90
2023-04-27T14:13:41.299Z,2.92
2023-04-27T14:18:43.292Z,2.70
2023-04-27T14:23:45.324Z,3.03
2023-04-27T14:28:47.350Z,2.80
2023-04-27T14:33:49.378Z,2.90
2023-04-27T14:38:51.423Z,2.80
2023-04-27T14:43:54.342Z,2.63
2023-04-27T14:48:56.612Z,2.20
2023-04-27T14:53:58.699Z,3.28
2023-04-27T14:59:00.850Z,2.10
2023-04-27T15:04:03.144Z,2.38
2023-04-27T15:09:06.335Z,2.13
2023-04-27T15:14:08.826Z,3.80
2023-04-27T15:19:11.070Z,2.50
2023-04-27T15:24:13.056Z,2.17
2023-04-27T15:29:15.413Z,2.50
2023-04-27T15:34:17.732Z,2.90
2023-04-27T15:39:19.770Z,2.42
2023-04-27T15:44:21.762Z,2.65
2023-04-27T15:49:23.789Z,2.53
2023-04-27T15:54:26.263Z,2.30
2023-04-27T15:59:28.423Z,2.58
2023-04-27T16:04:30.527Z,2.78
2023-04-27T16:09:32.603Z,2.50
2023-04-27T16:14:34.626Z,2.85
2023-04-27T16:19:36.672Z,3.08
2023-04-27T16:24:38.682Z,2.88
2023-04-27T16:29:40.899Z,3.63
2023-04-27T16:34:43.118Z,3.00
2023-04-27T16:39:45.447Z,3.25
2023-04-27T16:44:47.841Z,3.40
2023-04-27T16:49:49.925Z,2.95
2023-04-27T16:54:52.043Z,2.90
2023-04-27T16:59:54.339Z,2.70
2023-04-27T17:04:57.926Z,3.53
2023-04-27T17:10:00.138Z,3.50
2023-04-27T17:15:02.492Z,3.58
2023-04-27T17:20:14.836Z,3.55
2023-04-27T17:25:17.929Z,4.13
2023-04-27T17:30:20.012Z,4.53
2023-04-27T17:35:22.230Z,5.82
2023-04-27T17:40:24.283Z,4.03
2023-04-27T17:45:28.777Z,4.82
2023-04-27T17:50:31.677Z,5.13
2023-04-27T17:55:33.784Z,5.03
2023-04-27T18:00:36.004Z,5.65
2023-04-27T18:05:38.243Z,6.03
2023-04-27T18:10:40.256Z,5.55
2023-04-27T18:15:42.370Z,6.63
2023-04-27T18:20:45.038Z,6.28
2023-04-27T18:25:47.553Z,8.38
2023-04-27T18:30:49.771Z,5.45
2023-04-27T18:35:51.906Z,5.25
2023-04-27T18:40:54.179Z,5.78
2023-04-27T18:45:56.405Z,5.90
2023-04-27T18:50:58.617Z,7.68
2023-04-27T18:56:00.984Z,5.57
2023-04-27T19:01:03.093Z,6.72
2023-04-27T19:06:05.214Z,5.40
2023-04-27T19:11:07.347Z,5.85
2023-04-27T19:16:10.476Z,6.50
2023-04-27T19:21:12.940Z,5.60
2023-04-27T19:26:15.331Z,6.13
2023-04-27T19:31:17.955Z,5.80
2023-04-27T19:36:20.837Z,6.68
2023-04-27T19:41:23.778Z,5.93
2023-04-27T19:46:26.795Z,6.15
2023-04-27T19:51:29.694Z,8.88
2023-04-27T19:56:31.702Z,7.75
2023-04-27T20:06:35.878Z,7.97
2023-04-27T20:11:38.006Z,6.95
2023-04-27T20:16:40.188Z,7.60
2023-04-27T20:21:42.375Z,13.68
2023-04-27T20:26:44.622Z,9.15
2023-04-27T20:31:48.672Z,7.38
2023-04-27T20:36:53.086Z,7.40
2023-04-27T20:41:55.003Z,6.88
2023-04-27T20:51:59.127Z,6.65
2023-04-27T20:57:02.266Z,7.47
2023-04-27T21:02:04.432Z,7.07
2023-04-27T21:07:06.617Z,6.65
2023-04-27T21:12:09.113Z,6.30
2023-04-27T21:17:15.173Z,7.75
2023-04-27T21:22:17.174Z,6.60
2023-04-27T21:27:19.338Z,9.43
2023-04-27T21:32:21.370Z,7.07
2023-04-27T21:42:25.886Z,7.18
2023-04-27T21:47:28.232Z,7.45
2023-04-27T21:52:30.484Z,6.97
2023-04-27T21:57:35.563Z,7.60
2023-04-27T22:02:37.779Z,8.20
2023-04-27T22:07:40.062Z,10.13
2023-04-27T22:12:42.240Z,8.65
2023-04-27T22:17:44.430Z,8.63
2023-04-27T22:22:46.641Z,8.60
2023-04-27T22:27:48.630Z,8.68
2023-04-27T22:37:52.738Z,8.32
2023-04-27T22:42:55.820Z,8.75
2023-04-27T22:47:57.984Z,8.80
2023-04-27T22:53:00.761Z,8.57
2023-04-27T22:58:02.713Z,8.48
2023-04-27T23:08:06.963Z,9.93
2023-04-27T23:13:10.834Z,8.95
2023-04-27T23:18:12.918Z,9.18
2023-04-27T23:23:15.002Z,9.70
2023-04-27T23:28:17.131Z,9.57
2023-04-27T23:38:21.173Z,9.18
2023-04-27T23:43:23.198Z,10.00
2023-04-27T23:48:25.333Z,10.77
2023-04-27T23:58:29.423Z,10.95
